sensor_id;sensor_type;location;lat;lon;timestamp;pressure;altitude;pressure_sealevel;temperature;humidity
76694;BME280;69667;52.136;5.424;2024-01-30T00:02:24;102677.09;;;6.54;100.00
76694;BME280;69667;52.136;5.424;2024-01-30T00:04:53;102680.72;;;6.52;100.00
76694;BME280;69667;52.136;5.424;2024-01-30T00:07:22;102680.78;;;6.50;100.00
76694;BME280;69667;52.136;5.424;2024-01-30T00:09:51;102690.63;;;6.50;100.00
76694;BME280;69667;52.136;5.424;2024-01-30T00:12:19;102685.34;;;6.47;100.00
76694;BME280;69667;52.136;5.424;2024-01-30T00:14:48;102686.28;;;6.46;100.00
76694;BME280;69667;52.136;5.424;2024-01-30T00:17:20;102683.56;;;6.47;100.00
76694;BME280;69667;52.136;5.424;2024-01-30T00:19:49;102678.34;;;6.41;100.00
76694;BME280;69667;52.136;5.424;2024-01-30T00:22:23;102674.81;;;6.40;100.00
76694;BME280;69667;52.136;5.424;2024-01-30T00:24:51;102675.66;;;6.41;100.00
76694;BME280;69667;52.136;5.424;2024-01-30T00:27:19;102686.44;;;6.39;100.00
76694;BME280;69667;52.136;5.424;2024-01-30T00:29:48;102682.94;;;6.37;100.00
76694;BME280;69667;52.136;5.424;2024-01-30T00:32:16;102680.19;;;6.40;100.00
76694;BME280;69667;52.136;5.424;2024-01-30T00:34:46;102681.09;;;6.39;100.00
76694;BME280;69667;52.136;5.424;2024-01-30T00:37:15;102681.94;;;6.41;100.00
76694;BME280;69667;52.136;5.424;2024-01-30T00:39:44;102672.94;;;6.44;100.00
76694;BME280;69667;52.136;5.424;2024-01-30T00:42:14;102680.00;;;6.47;100.00
76694;BME280;69667;52.136;5.424;2024-01-30T00:44:42;102672.84;;;6.47;100.00
76694;BME280;69667;52.136;5.424;2024-01-30T00:47:10;102673.63;;;6.51;100.00
76694;BME280;69667;52.136;5.424;2024-01-30T00:49:38;102670.06;;;6.50;100.00
76694;BME280;69667;52.136;5.424;2024-01-30T00:52:07;102668.31;;;6.49;100.00
76694;BME280;69667;52.136;5.424;2024-01-30T00:54:35;102682.63;;;6.48;100.00
76694;BME280;69667;52.136;5.424;2024-01-30T00:57:04;102671.84;;;6.50;100.00
76694;BME280;69667;52.136;5.424;2024-01-30T00:59:33;102677.09;;;6.54;100.00
76694;BME280;69667;52.136;5.424;2024-01-30T01:02:01;102673.63;;;6.51;100.00
76694;BME280;69667;52.136;5.424;2024-01-30T01:04:30;102666.56;;;6.47;100.00
76694;BME280;69667;52.136;5.424;2024-01-30T01:07:02;102673.69;;;6.47;100.00
76694;BME280;69667;52.136;5.424;2024-01-30T01:09:30;102673.84;;;6.43;100.00
76694;BME280;69667;52.136;5.424;2024-01-30T01:11:58;102670.34;;;6.39;100.00
76694;BME280;69667;52.136;5.424;2024-01-30T01:14:27;102665.97;;;6.37;100.00
76694;BME280;69667;52.136;5.424;2024-01-30T01:16:55;102661.50;;;6.37;100.00
76694;BME280;69667;52.136;5.424;2024-01-30T01:19:25;102664.19;;;6.37;100.00
76694;BME280;69667;52.136;5.424;2024-01-30T01:21:54;102658.69;;;6.42;100.00
76694;BME280;69667;52.136;5.424;2024-01-30T01:24:24;102661.31;;;6.43;100.00
76694;BME280;69667;52.136;5.424;2024-01-30T01:26:52;102650.63;;;6.42;100.00
76694;BME280;69667;52.136;5.424;2024-01-30T01:29:20;102644.44;;;6.40;100.00
76694;BME280;69667;52.136;5.424;2024-01-30T01:31:55;102638.16;;;6.39;100.00
76694;BME280;69667;52.136;5.424;2024-01-30T01:34:24;102635.50;;;6.39;100.00
76694;BME280;69667;52.136;5.424;2024-01-30T01:36:57;102647.06;;;6.41;100.00
76694;BME280;69667;52.136;5.424;2024-01-30T01:39:26;102638.16;;;6.39;100.00
76694;BME280;69667;52.136;5.424;2024-01-30T01:41:54;102633.75;;;6.38;100.00
76694;BME280;69667;52.136;5.424;2024-01-30T01:44:23;102645.41;;;6.37;100.00
76694;BME280;69667;52.136;5.424;2024-01-30T01:46:58;102642.88;;;6.31;100.00
76694;BME280;69667;52.136;5.424;2024-01-30T01:49:27;102643.03;;;6.27;100.00
76694;BME280;69667;52.136;5.424;2024-01-30T01:51:57;102639.47;;;6.26;100.00
76694;BME280;69667;52.136;5.424;2024-01-30T01:54:26;102642.19;;;6.25;100.00
76694;BME280;69667;52.136;5.424;2024-01-30T01:56:57;102635.03;;;6.25;100.00
76694;BME280;69667;52.136;5.424;2024-01-30T01:59:26;102643.13;;;6.24;100.00
76694;BME280;69667;52.136;5.424;2024-01-30T02:01:55;102643.16;;;6.22;100.00
76694;BME280;69667;52.136;5.424;2024-01-30T02:04:24;102637.00;;;6.19;100.00
76694;BME280;69667;52.136;5.424;2024-01-30T02:06:52;102642.47;;;6.14;100.00
76694;BME280;69667;52.136;5.424;2024-01-30T02:09:21;102640.78;;;6.12;100.00
76694;BME280;69667;52.136;5.424;2024-01-30T02:11:49;102630.06;;;6.12;100.00
76694;BME280;69667;52.136;5.424;2024-01-30T02:14:17;102633.53;;;6.15;100.00
76694;BME280;69667;52.136;5.424;2024-01-30T02:16:46;102631.69;;;6.17;100.00
76694;BME280;69667;52.136;5.424;2024-01-30T02:19:14;102627.09;;;6.22;100.00
76694;BME280;69667;52.136;5.424;2024-01-30T02:21:43;102630.66;;;6.21;100.00
76694;BME280;69667;52.136;5.424;2024-01-30T02:24:12;102631.50;;;6.23;100.00
76694;BME280;69667;52.136;5.424;2024-01-30T02:26:40;102631.31;;;6.29;100.00
76694;BME280;69667;52.136;5.424;2024-01-30T02:29:08;102629.56;;;6.28;100.00
76694;BME280;69667;52.136;5.424;2024-01-30T02:31:37;102636.69;;;6.29;100.00
76694;BME280;69667;52.136;5.424;2024-01-30T02:34:05;102651.03;;;6.28;100.00
76694;BME280;69667;52.136;5.424;2024-01-30T02:36:33;102646.59;;;6.27;100.00
76694;BME280;69667;52.136;5.424;2024-01-30T02:39:02;102636.81;;;6.25;100.00
76694;BME280;69667;52.136;5.424;2024-01-30T02:41:30;102637.66;;;6.27;100.00
76694;BME280;69667;52.136;5.424;2024-01-30T02:43:59;102631.31;;;6.29;100.00
76694;BME280;69667;52.136;5.424;2024-01-30T02:46:27;102638.41;;;6.32;100.00
76694;BME280;69667;52.136;5.424;2024-01-30T02:48:55;102628.56;;;6.32;100.00
76694;BME280;69667;52.136;5.424;2024-01-30T02:51:24;102641.09;;;6.32;100.00
76694;BME280;69667;52.136;5.424;2024-01-30T02:53:53;102618.84;;;6.28;100.00
76694;BME280;69667;52.136;5.424;2024-01-30T02:56:22;102612.50;;;6.32;100.00
76694;BME280;69667;52.136;5.424;2024-01-30T02:58:51;102619.63;;;6.32;100.00
76694;BME280;69667;52.136;5.424;2024-01-30T03:01:20;102613.38;;;6.31;100.00
76694;BME280;69667;52.136;5.424;2024-01-30T03:03:48;102613.34;;;6.33;100.00
76694;BME280;69667;52.136;5.424;2024-01-30T03:06:17;102605.25;;;6.34;100.00
76694;BME280;69667;52.136;5.424;2024-01-30T03:08:47;102607.13;;;6.32;100.00
76694;BME280;69667;52.136;5.424;2024-01-30T03:11:17;102601.81;;;6.29;100.00
76694;BME280;69667;52.136;5.424;2024-01-30T03:13:46;102601.81;;;6.29;100.00
76694;BME280;69667;52.136;5.424;2024-01-30T03:16:14;102599.09;;;6.31;100.00
76694;BME280;69667;52.136;5.424;2024-01-30T03:18:42;102586.72;;;6.27;100.00
76694;BME280;69667;52.136;5.424;2024-01-30T03:21:10;102582.25;;;6.26;100.00
76694;BME280;69667;52.136;5.424;2024-01-30T03:23:39;102582.25;;;6.27;100.00
76694;BME280;69667;52.136;5.424;2024-01-30T03:26:07;102591.09;;;6.29;100.00
76694;BME280;69667;52.136;5.424;2024-01-30T03:28:36;102581.34;;;6.27;100.00
76694;BME280;69667;52.136;5.424;2024-01-30T03:31:04;102589.41;;;6.27;100.00
76694;BME280;69667;52.136;5.424;2024-01-30T03:33:33;102591.16;;;6.28;100.00
76694;BME280;69667;52.136;5.424;2024-01-30T03:36:05;102584.94;;;6.27;100.00
76694;BME280;69667;52.136;5.424;2024-01-30T03:38:34;102590.16;;;6.32;100.00
76694;BME280;69667;52.136;5.424;2024-01-30T03:41:07;102587.31;;;6.36;100.00
76694;BME280;69667;52.136;5.424;2024-01-30T03:43:36;102584.53;;;6.39;100.00
76694;BME280;69667;52.136;5.424;2024-01-30T03:46:04;102587.84;;;6.47;100.00
76694;BME280;69667;52.136;5.424;2024-01-30T03:48:33;102576.13;;;6.52;100.00
76694;BME280;69667;52.136;5.424;2024-01-30T03:51:01;102570.72;;;6.53;100.00
76694;BME280;69667;52.136;5.424;2024-01-30T03:53:32;102572.38;;;6.57;100.00
76694;BME280;69667;52.136;5.424;2024-01-30T03:56:01;102563.25;;;6.63;100.00
76694;BME280;69667;52.136;5.424;2024-01-30T03:58:30;102564.03;;;6.66;100.00
76694;BME280;69667;52.136;5.424;2024-01-30T04:00:59;102555.84;;;6.71;100.00
76694;BME280;69667;52.136;5.424;2024-01-30T04:03:28;102559.34;;;6.73;100.00
76694;BME280;69667;52.136;5.424;2024-01-30T04:05:56;102563.81;;;6.74;100.00
76694;BME280;69667;52.136;5.424;2024-01-30T04:08:24;102563.75;;;6.75;100.00
76694;BME280;69667;52.136;5.424;2024-01-30T04:10:53;102570.00;;;6.76;100.00
76694;BME280;69667;52.136;5.424;2024-01-30T04:13:22;102570.91;;;6.75;100.00
76694;BME280;69667;52.136;5.424;2024-01-30T04:15:50;102567.22;;;6.79;100.00
76694;BME280;69667;52.136;5.424;2024-01-30T04:18:19;102576.03;;;6.82;100.00
76694;BME280;69667;52.136;5.424;2024-01-30T04:20:47;102574.16;;;6.86;100.00
76694;BME280;69667;52.136;5.424;2024-01-30T04:23:15;102573.16;;;6.88;100.00
76694;BME280;69667;52.136;5.424;2024-01-30T04:25:44;102571.31;;;6.90;100.00
76694;BME280;69667;52.136;5.424;2024-01-30T04:28:12;102563.09;;;6.95;100.00
76694;BME280;69667;52.136;5.424;2024-01-30T04:30:42;102557.63;;;6.98;100.00
76694;BME280;69667;52.136;5.424;2024-01-30T04:33:10;102558.44;;;7.00;100.00
76694;BME280;69667;52.136;5.424;2024-01-30T04:35:39;102548.50;;;7.03;100.00
76694;BME280;69667;52.136;5.424;2024-01-30T04:38:09;102548.44;;;7.05;100.00
76694;BME280;69667;52.136;5.424;2024-01-30T04:40:37;102546.59;;;7.07;100.00
76694;BME280;69667;52.136;5.424;2024-01-30T04:43:06;102545.66;;;7.08;100.00
76694;BME280;69667;52.136;5.424;2024-01-30T04:45:34;102547.47;;;7.07;100.00
76694;BME280;69667;52.136;5.424;2024-01-30T04:48:03;102525.06;;;7.08;100.00
76694;BME280;69667;52.136;5.424;2024-01-30T04:50:31;102534.84;;;7.09;100.00
76694;BME280;69667;52.136;5.424;2024-01-30T04:53:00;102542.97;;;7.08;100.00
76694;BME280;69667;52.136;5.424;2024-01-30T04:55:28;102543.91;;;7.07;100.00
76694;BME280;69667;52.136;5.424;2024-01-30T04:57:57;102548.38;;;7.06;100.00
76694;BME280;69667;52.136;5.424;2024-01-30T05:00:25;102536.84;;;7.04;100.00
76694;BME280;69667;52.136;5.424;2024-01-30T05:02:55;102554.63;;;7.07;100.00
76694;BME280;69667;52.136;5.424;2024-01-30T05:05:24;102539.41;;;7.07;100.00
76694;BME280;69667;52.136;5.424;2024-01-30T05:07:52;102543.84;;;7.08;100.00
76694;BME280;69667;52.136;5.424;2024-01-30T05:10:20;102550.97;;;7.09;100.00
76694;BME280;69667;52.136;5.424;2024-01-30T05:12:49;102550.81;;;7.14;100.00
76694;BME280;69667;52.136;5.424;2024-01-30T05:15:17;102550.72;;;7.17;100.00
76694;BME280;69667;52.136;5.424;2024-01-30T05:17:52;102541.66;;;7.19;100.00
76694;BME280;69667;52.136;5.424;2024-01-30T05:20:20;102550.59;;;7.20;100.00
76694;BME280;69667;52.136;5.424;2024-01-30T05:22:48;102544.22;;;7.24;100.00
76694;BME280;69667;52.136;5.424;2024-01-30T05:25:18;102539.69;;;7.26;100.00
76694;BME280;69667;52.136;5.424;2024-01-30T05:27:47;102535.94;;;7.30;100.00
76694;BME280;69667;52.136;5.424;2024-01-30T05:30:15;102530.50;;;7.31;100.00
76694;BME280;69667;52.136;5.424;2024-01-30T05:32:43;102530.38;;;7.36;100.00
76694;BME280;69667;52.136;5.424;2024-01-30T05:35:12;102515.88;;;7.40;100.00
76694;BME280;69667;52.136;5.424;2024-01-30T05:37:40;102514.03;;;7.42;100.00
76694;BME280;69667;52.136;5.424;2024-01-30T05:40:09;102516.66;;;7.43;100.00
76694;BME280;69667;52.136;5.424;2024-01-30T05:42:37;102527.50;;;7.40;100.00
76694;BME280;69667;52.136;5.424;2024-01-30T05:45:06;102535.56;;;7.40;100.00
76694;BME280;69667;52.136;5.424;2024-01-30T05:47:35;102546.31;;;7.40;100.00
76694;BME280;69667;52.136;5.424;2024-01-30T05:50:03;102544.50;;;7.41;100.00
76694;BME280;69667;52.136;5.424;2024-01-30T05:52:31;102528.41;;;7.41;100.00
76694;BME280;69667;52.136;5.424;2024-01-30T05:55:00;102533.78;;;7.41;100.00
76694;BME280;69667;52.136;5.424;2024-01-30T05:57:28;102536.53;;;7.38;100.00
76694;BME280;69667;52.136;5.424;2024-01-30T06:00:02;102535.75;;;7.36;100.00
76694;BME280;69667;52.136;5.424;2024-01-30T06:02:33;102539.41;;;7.33;100.00
76694;BME280;69667;52.136;5.424;2024-01-30T06:05:01;102540.41;;;7.31;100.00
76694;BME280;69667;52.136;5.424;2024-01-30T06:07:29;102545.66;;;7.34;100.00
76694;BME280;69667;52.136;5.424;2024-01-30T06:10:03;102551.03;;;7.34;100.00
76694;BME280;69667;52.136;5.424;2024-01-30T06:12:31;102546.44;;;7.37;100.00
76694;BME280;69667;52.136;5.424;2024-01-30T06:14:59;102542.84;;;7.37;100.00
76694;BME280;69667;52.136;5.424;2024-01-30T06:17:28;102541.84;;;7.41;100.00
76694;BME280;69667;52.136;5.424;2024-01-30T06:19:58;102529.25;;;7.41;100.00
76694;BME280;69667;52.136;5.424;2024-01-30T06:22:26;102548.88;;;7.43;100.00
76694;BME280;69667;52.136;5.424;2024-01-30T06:24:55;102547.03;;;7.45;100.00
76694;BME280;69667;52.136;5.424;2024-01-30T06:27:23;102532.66;;;7.46;100.00
76694;BME280;69667;52.136;5.424;2024-01-30T06:29:51;102534.38;;;7.49;100.00
76694;BME280;69667;52.136;5.424;2024-01-30T06:32:19;102537.00;;;7.50;100.00
76694;BME280;69667;52.136;5.424;2024-01-30T06:34:48;102543.28;;;7.49;100.00
76694;BME280;69667;52.136;5.424;2024-01-30T06:37:16;102548.63;;;7.51;100.00
76694;BME280;69667;52.136;5.424;2024-01-30T06:39:45;102543.28;;;7.49;100.00
76694;BME280;69667;52.136;5.424;2024-01-30T06:42:16;102542.31;;;7.52;100.00
76694;BME280;69667;52.136;5.424;2024-01-30T06:44:44;102549.38;;;7.54;100.00
76694;BME280;69667;52.136;5.424;2024-01-30T06:47:13;102552.03;;;7.56;100.00
76694;BME280;69667;52.136;5.424;2024-01-30T06:49:41;102564.59;;;7.55;100.00
76694;BME280;69667;52.136;5.424;2024-01-30T06:52:11;102551.09;;;7.57;100.00
76694;BME280;69667;52.136;5.424;2024-01-30T06:54:40;102555.63;;;7.55;100.00
76694;BME280;69667;52.136;5.424;2024-01-30T06:57:08;102550.31;;;7.53;100.00
76694;BME280;69667;52.136;5.424;2024-01-30T06:59:39;102569.06;;;7.55;100.00
76694;BME280;69667;52.136;5.424;2024-01-30T07:02:11;102568.03;;;7.59;100.00
76694;BME280;69667;52.136;5.424;2024-01-30T07:04:40;102556.34;;;7.60;100.00
76694;BME280;69667;52.136;5.424;2024-01-30T07:07:13;102559.94;;;7.60;100.00
76694;BME280;69667;52.136;5.424;2024-01-30T07:09:43;102558.16;;;7.59;100.00
76694;BME280;69667;52.136;5.424;2024-01-30T07:12:11;102557.22;;;7.60;100.00
76694;BME280;69667;52.136;5.424;2024-01-30T07:14:40;102546.50;;;7.60;100.00
76694;BME280;69667;52.136;5.424;2024-01-30T07:17:09;102555.38;;;7.62;100.00
76694;BME280;69667;52.136;5.424;2024-01-30T07:19:37;102568.88;;;7.61;100.00
76694;BME280;69667;52.136;5.424;2024-01-30T07:22:05;102564.28;;;7.63;100.00
76694;BME280;69667;52.136;5.424;2024-01-30T07:24:34;102566.13;;;7.62;100.00
76694;BME280;69667;52.136;5.424;2024-01-30T07:27:03;102576.88;;;7.62;100.00
76694;BME280;69667;52.136;5.424;2024-01-30T07:29:31;102566.00;;;7.65;100.00
76694;BME280;69667;52.136;5.424;2024-01-30T07:32:00;102581.06;;;7.69;100.00
76694;BME280;69667;52.136;5.424;2024-01-30T07:34:28;102581.06;;;7.71;100.00
76694;BME280;69667;52.136;5.424;2024-01-30T07:36:57;102579.16;;;7.73;100.00
76694;BME280;69667;52.136;5.424;2024-01-30T07:39:26;102574.66;;;7.73;100.00
76694;BME280;69667;52.136;5.424;2024-01-30T07:41:54;102580.81;;;7.77;100.00
76694;BME280;69667;52.136;5.424;2024-01-30T07:44:22;102590.63;;;7.78;100.00
76694;BME280;69667;52.136;5.424;2024-01-30T07:46:51;102581.53;;;7.82;100.00
76694;BME280;69667;52.136;5.424;2024-01-30T07:49:19;102586.69;;;7.88;100.00
76694;BME280;69667;52.136;5.424;2024-01-30T07:51:47;102591.91;;;7.93;100.00
76694;BME280;69667;52.136;5.424;2024-01-30T07:54:16;102593.41;;;8.00;100.00
76694;BME280;69667;52.136;5.424;2024-01-30T07:56:44;102593.25;;;8.04;100.00
76694;BME280;69667;52.136;5.424;2024-01-30T07:59:13;102598.47;;;8.09;100.00
76694;BME280;69667;52.136;5.424;2024-01-30T08:01:41;102601.94;;;8.12;100.00
76694;BME280;69667;52.136;5.424;2024-01-30T08:04:10;102603.53;;;8.16;100.00
76694;BME280;69667;52.136;5.424;2024-01-30T08:06:38;102600.72;;;8.21;100.00
76694;BME280;69667;52.136;5.424;2024-01-30T08:09:10;102601.31;;;8.29;100.00
76694;BME280;69667;52.136;5.424;2024-01-30T08:11:38;102605.53;;;8.36;100.00
76694;BME280;69667;52.136;5.424;2024-01-30T08:14:06;102602.66;;;8.40;100.00
76694;BME280;69667;52.136;5.424;2024-01-30T08:16:35;102603.44;;;8.44;100.00
76694;BME280;69667;52.136;5.424;2024-01-30T08:19:14;102597.69;;;8.53;100.00
76694;BME280;69667;52.136;5.424;2024-01-30T08:21:46;102595.69;;;8.58;100.00
76694;BME280;69667;52.136;5.424;2024-01-30T08:27:03;102594.38;;;8.68;100.00
76694;BME280;69667;52.136;5.424;2024-01-30T08:29:32;102603.13;;;8.74;100.00
76694;BME280;69667;52.136;5.424;2024-01-30T08:32:01;102603.84;;;8.78;100.00
76694;BME280;69667;52.136;5.424;2024-01-30T08:34:29;102596.47;;;8.83;100.00
76694;BME280;69667;52.136;5.424;2024-01-30T08:36:58;102598.81;;;8.92;100.00
76694;BME280;69667;52.136;5.424;2024-01-30T08:39:26;102593.13;;;9.00;100.00
76694;BME280;69667;52.136;5.424;2024-01-30T08:41:55;102591.09;;;9.05;100.00
76694;BME280;69667;52.136;5.424;2024-01-30T08:44:25;102597.13;;;9.11;100.00
76694;BME280;69667;52.136;5.424;2024-01-30T08:46:55;102594.19;;;9.17;100.00
76694;BME280;69667;52.136;5.424;2024-01-30T08:49:24;102597.50;;;9.24;100.00
76694;BME280;69667;52.136;5.424;2024-01-30T08:51:52;102591.97;;;9.27;100.00
76694;BME280;69667;52.136;5.424;2024-01-30T08:54:21;102596.91;;;9.37;100.00
76694;BME280;69667;52.136;5.424;2024-01-30T08:56:49;102594.75;;;9.45;100.00
76694;BME280;69667;52.136;5.424;2024-01-30T08:59:19;102591.00;;;9.49;100.00
76694;BME280;69667;52.136;5.424;2024-01-30T09:01:47;102605.16;;;9.54;100.00
76694;BME280;69667;52.136;5.424;2024-01-30T09:04:30;102598.56;;;9.61;100.00
76694;BME280;69667;52.136;5.424;2024-01-30T09:06:58;102608.88;;;9.72;100.00
76694;BME280;69667;52.136;5.424;2024-01-30T09:09:27;102599.28;;;9.85;100.00
76694;BME280;69667;52.136;5.424;2024-01-30T09:11:55;102600.38;;;10.01;100.00
76694;BME280;69667;52.136;5.424;2024-01-30T09:14:24;102594.94;;;10.23;100.00
76694;BME280;69667;52.136;5.424;2024-01-30T09:16:56;102593.19;;;10.40;100.00
76694;BME280;69667;52.136;5.424;2024-01-30T09:19:24;102606.13;;;10.52;100.00
76694;BME280;69667;52.136;5.424;2024-01-30T09:21:53;102610.22;;;10.61;100.00
76694;BME280;69667;52.136;5.424;2024-01-30T09:24:22;102613.91;;;10.58;100.00
76694;BME280;69667;52.136;5.424;2024-01-30T09:26:50;102605.81;;;10.58;100.00
76694;BME280;69667;52.136;5.424;2024-01-30T09:29:18;102615.03;;;10.54;100.00
76694;BME280;69667;52.136;5.424;2024-01-30T09:31:47;102616.03;;;10.52;100.00
76694;BME280;69667;52.136;5.424;2024-01-30T09:34:16;102617.28;;;10.45;100.00
76694;BME280;69667;52.136;5.424;2024-01-30T09:36:44;102621.88;;;10.43;100.00
76694;BME280;69667;52.136;5.424;2024-01-30T09:39:13;102625.56;;;10.40;100.00
76694;BME280;69667;52.136;5.424;2024-01-30T09:41:49;102621.00;;;10.42;100.00
76694;BME280;69667;52.136;5.424;2024-01-30T09:44:19;102622.69;;;10.45;100.00
76694;BME280;69667;52.136;5.424;2024-01-30T09:46:48;102624.50;;;10.44;100.00
76694;BME280;69667;52.136;5.424;2024-01-30T09:49:17;102634.34;;;10.45;100.00
76694;BME280;69667;52.136;5.424;2024-01-30T09:51:48;102644.31;;;10.43;100.00
76694;BME280;69667;52.136;5.424;2024-01-30T09:54:18;102643.47;;;10.43;100.00
76694;BME280;69667;52.136;5.424;2024-01-30T09:56:48;102631.63;;;10.45;100.00
76694;BME280;69667;52.136;5.424;2024-01-30T09:59:16;102635.16;;;10.47;100.00
76694;BME280;69667;52.136;5.424;2024-01-30T10:01:45;102640.31;;;10.52;100.00
76694;BME280;69667;52.136;5.424;2024-01-30T10:04:14;102638.50;;;10.52;100.00
76694;BME280;69667;52.136;5.424;2024-01-30T10:06:43;102642.91;;;10.55;100.00
76694;BME280;69667;52.136;5.424;2024-01-30T10:09:11;102643.91;;;10.52;100.00
76694;BME280;69667;52.136;5.424;2024-01-30T10:11:40;102634.94;;;10.52;100.00
76694;BME280;69667;52.136;5.424;2024-01-30T10:14:08;102643.84;;;10.54;100.00
76694;BME280;69667;52.136;5.424;2024-01-30T10:16:37;102635.66;;;10.55;100.00
76694;BME280;69667;52.136;5.424;2024-01-30T10:19:05;102643.69;;;10.57;100.00
76694;BME280;69667;52.136;5.424;2024-01-30T10:21:34;102640.66;;;10.64;100.00
76694;BME280;69667;52.136;5.424;2024-01-30T10:24:03;102644.81;;;10.71;100.00
76694;BME280;69667;52.136;5.424;2024-01-30T10:26:31;102637.31;;;10.78;100.00
76694;BME280;69667;52.136;5.424;2024-01-30T10:29:01;102634.03;;;10.90;100.00
76694;BME280;69667;52.136;5.424;2024-01-30T10:31:30;102625.09;;;11.06;100.00
76694;BME280;69667;52.136;5.424;2024-01-30T10:33:58;102628.34;;;11.48;100.00
76694;BME280;69667;52.136;5.424;2024-01-30T10:36:46;102644.94;;;11.77;100.00
76694;BME280;69667;52.136;5.424;2024-01-30T10:39:18;102643.47;;;11.71;100.00
76694;BME280;69667;52.136;5.424;2024-01-30T10:41:52;102618.97;;;13.65;100.00
76694;BME280;69667;52.136;5.424;2024-01-30T10:44:24;102620.75;;;12.73;100.00
76694;BME280;69667;52.136;5.424;2024-01-30T10:47:02;102635.72;;;12.15;100.00
76694;BME280;69667;52.136;5.424;2024-01-30T10:49:33;102639.56;;;11.94;100.00
76694;BME280;69667;52.136;5.424;2024-01-30T10:52:03;102642.91;;;11.65;100.00
76694;BME280;69667;52.136;5.424;2024-01-30T10:54:35;102640.06;;;11.49;100.00
76694;BME280;69667;52.136;5.424;2024-01-30T10:57:03;102642.50;;;11.36;100.00
76694;BME280;69667;52.136;5.424;2024-01-30T10:59:33;102641.25;;;11.25;100.00
76694;BME280;69667;52.136;5.424;2024-01-30T11:02:01;102647.13;;;11.34;100.00
76694;BME280;69667;52.136;5.424;2024-01-30T11:04:37;102648.25;;;11.47;100.00
76694;BME280;69667;52.136;5.424;2024-01-30T11:07:17;102647.53;;;11.44;100.00
76694;BME280;69667;52.136;5.424;2024-01-30T11:10:12;102650.16;;;11.45;100.00
76694;BME280;69667;52.136;5.424;2024-01-30T11:12:43;102653.66;;;11.47;100.00
76694;BME280;69667;52.136;5.424;2024-01-30T11:15:14;102650.84;;;11.68;100.00
76694;BME280;69667;52.136;5.424;2024-01-30T11:20:30;102658.16;;;12.17;100.00
76694;BME280;69667;52.136;5.424;2024-01-30T11:22:59;102656.41;;;12.16;100.00
76694;BME280;69667;52.136;5.424;2024-01-30T11:25:33;102651.38;;;12.25;100.00
76694;BME280;69667;52.136;5.424;2024-01-30T11:28:02;102660.19;;;12.13;100.00
76694;BME280;69667;52.136;5.424;2024-01-30T11:30:31;102653.56;;;12.02;100.00
76694;BME280;69667;52.136;5.424;2024-01-30T11:33:04;102661.19;;;11.94;100.00
76694;BME280;69667;52.136;5.424;2024-01-30T11:35:35;102657.84;;;11.89;100.00
76694;BME280;69667;52.136;5.424;2024-01-30T11:38:04;102663.88;;;11.77;100.00
76694;BME280;69667;52.136;5.424;2024-01-30T11:40:34;102681.69;;;11.64;100.00
76694;BME280;69667;52.136;5.424;2024-01-30T11:43:04;102683.56;;;11.44;100.00
76694;BME280;69667;52.136;5.424;2024-01-30T11:45:34;102676.84;;;11.34;100.00
76694;BME280;69667;52.136;5.424;2024-01-30T11:48:02;102684.66;;;11.40;100.00
76694;BME280;69667;52.136;5.424;2024-01-30T11:50:33;102682.44;;;11.48;100.00
76694;BME280;69667;52.136;5.424;2024-01-30T11:53:02;102688.00;;;11.45;100.00
76694;BME280;69667;52.136;5.424;2024-01-30T11:55:32;102697.19;;;11.24;100.00
76694;BME280;69667;52.136;5.424;2024-01-30T11:58:02;102699.16;;;11.02;100.00
76694;BME280;69667;52.136;5.424;2024-01-30T12:00:31;102697.38;;;10.83;100.00
76694;BME280;69667;52.136;5.424;2024-01-30T12:03:03;102689.56;;;10.77;100.00
76694;BME280;69667;52.136;5.424;2024-01-30T12:05:32;102695.75;;;10.79;100.00
76694;BME280;69667;52.136;5.424;2024-01-30T12:08:01;102695.75;;;10.79;100.00
76694;BME280;69667;52.136;5.424;2024-01-30T12:10:30;102698.63;;;10.76;100.00
76694;BME280;69667;52.136;5.424;2024-01-30T12:12:58;102699.50;;;10.76;100.00
76694;BME280;69667;52.136;5.424;2024-01-30T12:15:27;102699.34;;;10.79;100.00
76694;BME280;69667;52.136;5.424;2024-01-30T12:18:06;102709.91;;;10.65;100.00
76694;BME280;69667;52.136;5.424;2024-01-30T12:20:35;102709.25;;;10.60;100.00
76694;BME280;69667;52.136;5.424;2024-01-30T12:23:04;102718.06;;;10.64;100.00
76694;BME280;69667;52.136;5.424;2024-01-30T12:25:32;102724.50;;;10.61;100.00
76694;BME280;69667;52.136;5.424;2024-01-30T12:28:01;102723.56;;;10.42;100.00
76694;BME280;69667;52.136;5.424;2024-01-30T12:30:29;102733.31;;;10.26;100.00
76694;BME280;69667;52.136;5.424;2024-01-30T12:32:58;102752.06;;;10.07;100.00
76694;BME280;69667;52.136;5.424;2024-01-30T12:35:26;102756.25;;;9.94;100.00
76694;BME280;69667;52.136;5.424;2024-01-30T12:37:58;102748.59;;;9.84;100.00
76694;BME280;69667;52.136;5.424;2024-01-30T12:40:26;102753.44;;;9.76;100.00
76694;BME280;69667;52.136;5.424;2024-01-30T12:42:55;102750.91;;;9.71;100.00
76694;BME280;69667;52.136;5.424;2024-01-30T12:45:23;102744.66;;;9.71;100.00
76694;BME280;69667;52.136;5.424;2024-01-30T12:47:51;102741.75;;;9.75;100.00
76694;BME280;69667;52.136;5.424;2024-01-30T12:50:20;102747.75;;;9.82;100.00
76694;BME280;69667;52.136;5.424;2024-01-30T12:52:49;102743.13;;;9.85;100.00
76694;BME280;69667;52.136;5.424;2024-01-30T12:55:18;102757.28;;;9.90;100.00
76694;BME280;69667;52.136;5.424;2024-01-30T12:57:46;102749.34;;;9.87;100.00
76694;BME280;69667;52.136;5.424;2024-01-30T13:00:14;102755.78;;;9.83;100.00
76694;BME280;69667;52.136;5.424;2024-01-30T13:02:45;102757.56;;;9.84;100.00
76694;BME280;69667;52.136;5.424;2024-01-30T13:05:13;102750.09;;;9.91;100.00